createdAt,value
2018-02-15T00:01:34.068Z,18.87
2018-02-15T00:04:01.021Z,20.80
2018-02-15T00:06:27.969Z,21.17
2018-02-15T00:08:54.834Z,22.90
2018-02-15T00:11:21.710Z,21.27
2018-02-15T00:13:48.652Z,18.73
2018-02-15T00:16:15.519Z,19.90
2018-02-15T00:18:42.456Z,20.13
2018-02-15T00:21:09.308Z,20.70
2018-02-15T00:23:36.282Z,21.20
2018-02-15T00:26:03.421Z,21.40
2018-02-15T00:28:30.505Z,20.67
2018-02-15T00:30:57.472Z,21.50
2018-02-15T00:33:24.340Z,22.03
2018-02-15T00:35:51.273Z,25.10
2018-02-15T00:38:18.152Z,24.50
2018-02-15T00:40:45.020Z,22.17
2018-02-15T00:43:11.950Z,21.20
2018-02-15T00:45:38.829Z,24.17
2018-02-15T00:48:05.712Z,21.63
2018-02-15T00:50:32.557Z,20.30
2018-02-15T00:52:59.424Z,24.73
2018-02-15T00:55:26.718Z,21.13
2018-02-15T00:57:54.017Z,21.80
2018-02-15T01:00:20.902Z,21.70
2018-02-15T01:02:47.823Z,23.57
2018-02-15T01:05:14.708Z,23.93
2018-02-15T01:07:41.576Z,23.00
2018-02-15T01:10:08.432Z,24.33
2018-02-15T01:12:35.368Z,23.23
2018-02-15T01:15:02.580Z,23.93
2018-02-15T01:17:29.435Z,22.30
2018-02-15T01:19:56.704Z,24.90
2018-02-15T01:22:24.013Z,22.30
2018-02-15T01:24:50.875Z,27.70
2018-02-15T01:27:17.742Z,26.40
2018-02-15T01:29:44.693Z,24.20
2018-02-15T01:32:11.541Z,22.97
2018-02-15T01:34:38.508Z,22.80
2018-02-15T01:37:05.372Z,24.07
2018-02-15T01:39:32.258Z,24.90
2018-02-15T01:41:59.109Z,23.07
2018-02-15T01:44:25.956Z,24.20
2018-02-15T01:46:52.840Z,26.90
2018-02-15T01:49:19.685Z,22.67
2018-02-15T01:51:46.600Z,23.83
2018-02-15T01:54:13.561Z,24.67
2018-02-15T01:56:40.420Z,24.27
2018-02-15T01:59:07.288Z,27.57
2018-02-15T02:01:34.174Z,27.50
2018-02-15T02:04:01.106Z,23.73
2018-02-15T02:06:27.948Z,26.63
2018-02-15T02:08:54.920Z,28.80
2018-02-15T02:11:21.776Z,24.53
2018-02-15T02:13:48.729Z,25.77
2018-02-15T02:16:15.618Z,25.03
2018-02-15T02:18:42.471Z,27.03
2018-02-15T02:21:09.396Z,25.20
2018-02-15T02:23:36.284Z,26.57
2018-02-15T02:26:03.268Z,27.27
2018-02-15T02:28:30.120Z,25.27
2018-02-15T02:30:56.978Z,26.47
2018-02-15T02:33:23.865Z,26.93
2018-02-15T02:35:51.246Z,25.20
2018-02-15T02:38:18.104Z,23.77
2018-02-15T02:40:45.073Z,23.17
2018-02-15T02:43:11.933Z,27.20
2018-02-15T02:45:38.895Z,30.40
2018-02-15T02:48:05.861Z,25.90
2018-02-15T02:50:32.821Z,27.50
2018-02-15T02:52:59.767Z,26.63
2018-02-15T02:55:26.722Z,26.70
2018-02-15T02:57:53.601Z,30.73
2018-02-15T03:00:20.560Z,26.03
2018-02-15T03:02:47.500Z,30.37
2018-02-15T03:05:14.364Z,29.63
2018-02-15T03:07:41.236Z,26.50
2018-02-15T03:10:08.102Z,26.77
2018-02-15T03:12:35.037Z,24.07
2018-02-15T03:15:01.996Z,28.10
2018-02-15T03:17:28.858Z,26.23
2018-02-15T03:19:55.815Z,26.30
2018-02-15T03:22:22.692Z,25.00
2018-02-15T03:24:49.622Z,25.17
2018-02-15T03:27:16.468Z,23.93
2018-02-15T03:29:43.446Z,25.60
2018-02-15T03:32:10.292Z,27.20
2018-02-15T03:34:37.175Z,23.87
2018-02-15T03:37:04.052Z,24.00
2018-02-15T03:39:30.959Z,26.83
2018-02-15T03:41:57.802Z,25.07
2018-02-15T03:44:25.096Z,25.43
2018-02-15T03:46:51.977Z,25.47
2018-02-15T03:49:18.830Z,25.43
2018-02-15T03:51:45.681Z,23.13
2018-02-15T03:54:12.573Z,21.73
2018-02-15T03:56:39.415Z,24.97
2018-02-15T03:59:06.392Z,22.47
2018-02-15T04:01:33.702Z,23.57
2018-02-15T04:04:00.556Z,24.90
2018-02-15T04:06:27.517Z,20.53
2018-02-15T04:08:54.392Z,22.87
2018-02-15T04:11:21.240Z,28.47
2018-02-15T04:13:48.195Z,24.40
2018-02-15T04:16:15.157Z,21.90
2018-02-15T04:18:42.000Z,21.03
2018-02-15T04:21:08.869Z,20.50
2018-02-15T04:23:35.776Z,23.83
2018-02-15T04:26:02.700Z,22.67
2018-02-15T04:28:29.644Z,23.63
2018-02-15T04:30:56.520Z,22.63
2018-02-15T04:33:23.560Z,21.83
2018-02-15T04:35:50.412Z,23.27
2018-02-15T04:38:17.373Z,19.37
2018-02-15T04:40:44.224Z,21.03
2018-02-15T04:43:11.093Z,23.27
2018-02-15T04:45:38.056Z,20.80
2018-02-15T04:48:04.965Z,21.80
2018-02-15T04:50:32.272Z,22.40
2018-02-15T04:52:59.122Z,23.67
2018-02-15T04:55:25.997Z,22.50
2018-02-15T04:57:52.933Z,22.67
2018-02-15T05:00:19.776Z,23.43
2018-02-15T05:02:47.172Z,24.13
2018-02-15T05:05:14.133Z,20.73
2018-02-15T05:07:41.107Z,21.17
2018-02-15T05:10:07.969Z,22.57
2018-02-15T05:12:34.918Z,28.63
2018-02-15T05:15:01.868Z,20.57
2018-02-15T05:17:28.823Z,21.43
2018-02-15T05:19:55.667Z,22.67
2018-02-15T05:22:22.561Z,21.40
2018-02-15T05:24:49.509Z,20.33
2018-02-15T05:27:16.387Z,21.30
2018-02-15T05:29:43.344Z,22.90
2018-02-15T05:32:10.278Z,22.20
2018-02-15T05:34:37.456Z,24.90
2018-02-15T05:37:04.431Z,23.17
2018-02-15T05:39:31.284Z,21.77
2018-02-15T05:41:58.219Z,21.87
2018-02-15T05:44:25.964Z,19.37
2018-02-15T05:46:53.217Z,22.07
2018-02-15T05:49:20.485Z,20.80
2018-02-15T05:51:47.780Z,23.83
2018-02-15T05:54:15.045Z,26.50
2018-02-15T05:56:41.888Z,22.43
2018-02-15T05:59:08.864Z,26.33
2018-02-15T06:01:36.134Z,22.53
2018-02-15T06:04:03.102Z,23.40
2018-02-15T06:06:30.064Z,22.80
2018-02-15T06:08:56.928Z,22.33
2018-02-15T06:11:23.965Z,21.80
2018-02-15T06:13:51.244Z,20.37
2018-02-15T06:16:18.111Z,22.10
2018-02-15T06:18:44.952Z,26.00
2018-02-15T06:21:11.873Z,20.37
2018-02-15T06:23:39.192Z,26.67
2018-02-15T06:26:06.071Z,23.12
2018-02-15T06:28:33.473Z,21.20
2018-02-15T06:31:00.715Z,19.77
2018-02-15T06:33:27.646Z,20.77
2018-02-15T06:35:54.506Z,23.40
2018-02-15T06:38:21.458Z,24.73
2018-02-15T06:40:48.408Z,20.97
2018-02-15T06:43:15.384Z,19.33
2018-02-15T06:45:42.329Z,23.37
2018-02-15T06:48:09.684Z,19.93
2018-02-15T06:50:36.545Z,25.30
2018-02-15T06:53:03.398Z,23.60
2018-02-15T06:55:30.302Z,20.37
2018-02-15T06:57:57.248Z,22.83
2018-02-15T07:00:24.101Z,23.80
2018-02-15T07:02:51.067Z,21.90
2018-02-15T07:05:17.996Z,23.93
2018-02-15T07:07:44.865Z,25.53
2018-02-15T07:10:11.858Z,24.33
2018-02-15T07:12:38.870Z,23.63
2018-02-15T07:15:05.749Z,37.97
2018-02-15T07:17:32.623Z,23.50
2018-02-15T07:19:59.568Z,22.93
2018-02-15T07:22:26.515Z,27.60
2018-02-15T07:24:53.424Z,22.73
2018-02-15T07:27:20.263Z,23.33
2018-02-15T07:29:47.116Z,22.50
2018-02-15T07:32:14.040Z,23.10
2018-02-15T07:34:40.996Z,20.53
2018-02-15T07:37:07.992Z,20.40
2018-02-15T07:39:35.332Z,19.73
2018-02-15T07:42:02.284Z,22.27
2018-02-15T07:44:29.138Z,23.00
2018-02-15T07:46:56.004Z,23.03
2018-02-15T07:49:22.887Z,22.87
2018-02-15T07:51:49.738Z,23.73
2018-02-15T07:54:16.629Z,21.13
2018-02-15T07:56:43.872Z,26.00
2018-02-15T07:59:10.760Z,20.53
2018-02-15T08:01:38.028Z,21.83
2018-02-15T08:04:05.376Z,21.07
2018-02-15T08:06:32.300Z,22.10
2018-02-15T08:08:59.193Z,19.90
2018-02-15T08:11:26.045Z,23.13
2018-02-15T08:13:52.964Z,22.03
2018-02-15T08:16:19.936Z,22.40
2018-02-15T08:18:46.801Z,21.77
2018-02-15T08:21:13.734Z,23.77
2018-02-15T08:23:40.622Z,25.97
2018-02-15T08:26:07.485Z,21.57
2018-02-15T08:28:34.364Z,20.87
2018-02-15T08:31:01.236Z,31.10
2018-02-15T08:33:28.155Z,27.03
2018-02-15T08:35:55.042Z,23.03
2018-02-15T08:38:22.351Z,21.87
2018-02-15T08:40:49.294Z,25.33
2018-02-15T08:43:16.545Z,25.17
2018-02-15T08:45:43.424Z,23.80
2018-02-15T08:48:10.305Z,21.93
2018-02-15T08:50:37.249Z,26.87
2018-02-15T08:53:04.225Z,22.63
2018-02-15T08:55:31.173Z,22.93
2018-02-15T08:57:58.150Z,23.00
2018-02-15T09:00:25.000Z,24.23
2018-02-15T09:02:51.849Z,23.00
2018-02-15T09:05:18.725Z,25.60
2018-02-15T09:07:45.827Z,25.73
2018-02-15T09:10:13.134Z,25.97
2018-02-15T09:12:40.049Z,24.40
2018-02-15T09:15:07.336Z,23.97
2018-02-15T09:17:34.221Z,25.43
2018-02-15T09:20:01.191Z,22.53
2018-02-15T09:22:28.173Z,22.87
2018-02-15T09:24:55.028Z,25.70
2018-02-15T09:27:21.937Z,23.13
2018-02-15T09:29:48.808Z,23.33
2018-02-15T09:32:15.759Z,24.07
2018-02-15T09:34:42.713Z,21.53
2018-02-15T09:37:09.552Z,24.73
2018-02-15T09:39:36.726Z,21.97
2018-02-15T09:42:03.643Z,21.07
2018-02-15T09:44:30.568Z,22.03
2018-02-15T09:46:57.417Z,22.63
2018-02-15T09:49:24.367Z,21.40
2018-02-15T09:51:51.217Z,21.33
2018-02-15T09:54:18.089Z,22.07
2018-02-15T09:59:29.427Z,21.03
2018-02-15T10:01:56.360Z,21.43
2018-02-15T10:04:23.623Z,21.87
2018-02-15T10:06:50.494Z,25.30
2018-02-15T10:09:17.348Z,19.63
2018-02-15T10:11:44.313Z,21.50
2018-02-15T10:14:11.182Z,18.63
2018-02-15T10:16:38.065Z,20.07
2018-02-15T10:19:04.981Z,18.90
2018-02-15T10:21:31.946Z,18.63
2018-02-15T10:23:58.900Z,18.57
2018-02-15T10:26:25.804Z,19.03
2018-02-15T10:28:52.688Z,18.23
2018-02-15T10:31:19.938Z,19.80
2018-02-15T10:33:47.198Z,18.27
2018-02-15T10:36:14.070Z,19.43
2018-02-15T10:38:41.316Z,18.20
2018-02-15T10:41:08.242Z,17.77
2018-02-15T10:43:35.345Z,17.37
2018-02-15T10:46:02.648Z,16.70
2018-02-15T10:48:29.536Z,17.23
2018-02-15T10:50:56.486Z,18.83
2018-02-15T10:53:23.349Z,17.40
2018-02-15T10:55:50.201Z,21.60
2018-02-15T10:58:17.082Z,16.67
2018-02-15T11:00:43.961Z,16.73
2018-02-15T11:03:10.868Z,19.63
2018-02-15T11:05:37.793Z,18.17
2018-02-15T11:08:05.374Z,18.43
2018-02-15T11:10:32.234Z,18.83
2018-02-15T11:12:59.306Z,17.80
2018-02-15T11:15:26.167Z,19.07
2018-02-15T11:17:53.015Z,17.17
2018-02-15T11:20:19.975Z,18.40
2018-02-15T11:22:47.248Z,17.73
2018-02-15T11:25:14.100Z,16.90
2018-02-15T11:27:40.995Z,16.50
2018-02-15T11:30:07.909Z,18.40
2018-02-15T11:32:34.921Z,17.43
2018-02-15T11:35:02.298Z,19.33
2018-02-15T11:37:29.234Z,18.57
2018-02-15T11:39:56.178Z,21.33
2018-02-15T11:42:23.032Z,20.47
2018-02-15T11:44:49.909Z,19.83
2018-02-15T11:47:16.869Z,19.73
2018-02-15T11:49:43.726Z,18.60
2018-02-15T11:52:10.589Z,20.87
2018-02-15T11:54:37.487Z,20.23
2018-02-15T11:57:04.406Z,22.70
2018-02-15T11:59:31.278Z,20.93
2018-02-15T12:01:58.197Z,23.90
2018-02-15T12:04:25.107Z,19.53
2018-02-15T12:06:52.024Z,20.70
2018-02-15T12:09:18.911Z,20.47
2018-02-15T12:11:45.853Z,19.73
2018-02-15T12:14:12.682Z,21.17
2018-02-15T12:16:39.560Z,22.53
2018-02-15T12:19:06.525Z,23.23
2018-02-15T12:21:33.421Z,19.47
2018-02-15T12:24:00.765Z,23.17
2018-02-15T12:26:27.794Z,21.07
2018-02-15T12:28:54.657Z,21.33
2018-02-15T12:31:21.529Z,20.97
2018-02-15T12:33:48.557Z,22.87
2018-02-15T12:36:15.784Z,23.27
2018-02-15T12:38:42.690Z,21.53
2018-02-15T12:41:09.560Z,22.20
2018-02-15T12:43:36.449Z,24.53
2018-02-15T12:46:03.398Z,24.00
2018-02-15T12:48:30.319Z,23.17
2018-02-15T12:50:57.192Z,25.57
2018-02-15T12:53:24.144Z,25.87
2018-02-15T12:55:51.108Z,27.53
2018-02-15T12:58:17.966Z,26.20
2018-02-15T13:00:44.850Z,25.60
2018-02-15T13:03:11.789Z,25.33
2018-02-15T13:05:38.638Z,25.00
2018-02-15T13:08:05.610Z,31.53
2018-02-15T13:10:32.499Z,26.80
2018-02-15T13:13:11.686Z,27.00
2018-02-15T13:15:50.668Z,26.63
2018-02-15T13:18:17.584Z,27.23
2018-02-15T13:20:44.436Z,27.37
2018-02-15T13:23:11.306Z,29.93
2018-02-15T13:25:38.369Z,30.10
2018-02-15T13:28:16.989Z,30.77
2018-02-15T13:30:43.856Z,28.17
2018-02-15T13:33:10.720Z,35.63
2018-02-15T13:35:37.608Z,38.23
2018-02-15T13:38:04.460Z,30.87
2018-02-15T13:40:31.388Z,33.27
2018-02-15T13:42:58.265Z,31.93
2018-02-15T13:45:25.214Z,42.90
2018-02-15T13:47:52.175Z,28.73
2018-02-15T13:50:19.021Z,29.47
2018-02-15T13:52:45.992Z,30.77
2018-02-15T13:55:12.891Z,27.57
2018-02-15T13:57:39.785Z,27.17
2018-02-15T14:00:06.693Z,29.30
2018-02-15T14:02:33.628Z,27.13
2018-02-15T14:05:00.598Z,28.00
2018-02-15T14:07:27.484Z,31.37
2018-02-15T14:09:54.756Z,24.03
2018-02-15T14:12:22.069Z,27.90
2018-02-15T14:14:48.953Z,28.83
2018-02-15T14:17:15.886Z,24.40
2018-02-15T14:19:42.792Z,26.83
2018-02-15T14:22:09.720Z,27.20
2018-02-15T14:24:37.748Z,25.33
2018-02-15T14:27:04.839Z,25.97
2018-02-15T14:29:31.959Z,29.27
2018-02-15T14:31:58.871Z,25.97
2018-02-15T14:34:25.853Z,28.03
2018-02-15T14:36:52.737Z,26.37
2018-02-15T14:39:20.020Z,25.60
2018-02-15T14:41:47.270Z,30.77
2018-02-15T14:44:14.151Z,25.30
2018-02-15T14:46:41.191Z,26.03
2018-02-15T14:49:08.118Z,29.87
2018-02-15T14:51:34.980Z,25.60
2018-02-15T14:54:01.877Z,26.93
2018-02-15T14:56:29.159Z,32.40
2018-02-15T14:58:56.461Z,26.90
2018-02-15T15:01:23.367Z,28.13
2018-02-15T15:03:50.616Z,36.33
2018-02-15T15:06:17.951Z,30.63
2018-02-15T15:08:44.903Z,30.43
2018-02-15T15:11:11.853Z,31.97
2018-02-15T15:13:38.813Z,27.63
2018-02-15T15:16:05.754Z,29.27
2018-02-15T15:18:32.602Z,28.43
2018-02-15T15:20:59.521Z,31.60
2018-02-15T15:23:26.478Z,27.10
2018-02-15T15:25:53.517Z,25.87
2018-02-15T15:28:20.436Z,28.30
2018-02-15T15:30:47.294Z,26.30
2018-02-15T15:33:14.175Z,29.57
2018-02-15T15:35:41.120Z,28.00
2018-02-15T15:38:08.051Z,24.50
2018-02-15T15:40:35.402Z,27.43
2018-02-15T15:43:02.336Z,32.70
2018-02-15T15:45:29.291Z,31.80
2018-02-15T15:47:56.168Z,28.03
2018-02-15T15:50:23.030Z,29.50
2018-02-15T15:52:49.908Z,30.13
2018-02-15T15:55:17.151Z,29.10
2018-02-15T15:57:44.108Z,37.07
2018-02-15T16:00:11.018Z,33.93
2018-02-15T16:02:37.888Z,30.67
2018-02-15T16:05:04.940Z,35.63
2018-02-15T16:07:32.013Z,29.70
2018-02-15T16:09:58.983Z,36.40
2018-02-15T16:12:25.830Z,29.00
2018-02-15T16:14:52.718Z,32.57
2018-02-15T16:17:19.578Z,33.43
2018-02-15T16:19:46.510Z,32.07
2018-02-15T16:22:13.399Z,32.13
2018-02-15T16:24:40.283Z,32.33
2018-02-15T16:27:07.601Z,33.27
2018-02-15T16:29:34.560Z,32.90
2018-02-15T16:32:01.492Z,30.13
2018-02-15T16:34:28.457Z,30.67
2018-02-15T16:36:55.315Z,30.03
2018-02-15T16:39:22.173Z,36.50
2018-02-15T16:41:49.055Z,33.10
2018-02-15T16:44:15.919Z,36.93
2018-02-15T16:46:42.776Z,32.03
2018-02-15T16:49:09.749Z,35.50
2018-02-15T16:51:36.655Z,35.67
2018-02-15T16:54:03.548Z,39.23
2018-02-15T16:56:30.442Z,31.73
2018-02-15T16:58:57.716Z,35.03
2018-02-15T17:01:24.952Z,34.30
2018-02-15T17:03:51.835Z,38.43
2018-02-15T17:06:18.729Z,44.27
2018-02-15T17:08:45.670Z,37.87
2018-02-15T17:11:12.657Z,36.40
2018-02-15T17:13:40.214Z,33.27
2018-02-15T17:16:07.157Z,32.20
2018-02-15T17:18:34.084Z,30.93
2018-02-15T17:21:01.002Z,29.87
2018-02-15T17:23:27.883Z,29.93
2018-02-15T17:25:54.840Z,32.17
2018-02-15T17:28:21.760Z,29.00
2018-02-15T17:30:48.659Z,27.83
2018-02-15T17:33:15.535Z,26.00
2018-02-15T17:35:42.443Z,27.30
2018-02-15T17:38:09.429Z,27.57
2018-02-15T17:40:36.289Z,24.43
2018-02-15T17:43:03.150Z,30.60
2018-02-15T17:45:30.113Z,28.20
2018-02-15T17:47:57.090Z,26.80
2018-02-15T17:50:24.509Z,28.00
2018-02-15T17:52:51.472Z,28.17
2018-02-15T17:55:18.537Z,28.60
2018-02-15T17:57:45.579Z,25.40
2018-02-15T18:00:12.567Z,25.30
2018-02-15T18:02:39.561Z,28.07
2018-02-15T18:05:06.925Z,26.50
2018-02-15T18:07:34.190Z,25.90
2018-02-15T18:10:01.095Z,26.67
2018-02-15T18:12:28.061Z,27.97
2018-02-15T18:14:55.021Z,29.67
2018-02-15T18:17:21.914Z,23.03
2018-02-15T18:19:48.816Z,24.77
2018-02-15T18:22:15.711Z,23.90
2018-02-15T18:24:42.606Z,27.13
2018-02-15T18:27:09.872Z,25.90
2018-02-15T18:29:37.135Z,26.63
2018-02-15T18:32:04.034Z,26.10
2018-02-15T18:34:31.000Z,24.90
2018-02-15T18:36:57.839Z,24.87
2018-02-15T18:39:24.810Z,24.40
2018-02-15T18:41:51.673Z,28.80
2018-02-15T18:44:18.542Z,23.83
2018-02-15T18:46:45.416Z,24.10
2018-02-15T18:49:12.291Z,23.87
2018-02-15T18:51:39.146Z,24.63
2018-02-15T18:54:06.350Z,22.23
2018-02-15T18:56:34.414Z,18.77
2018-02-15T18:59:01.685Z,18.27
2018-02-15T19:01:28.569Z,19.13
2018-02-15T19:03:55.579Z,18.57
2018-02-15T19:06:22.554Z,17.47
2018-02-15T19:08:49.831Z,20.40
2018-02-15T19:11:17.127Z,20.33
2018-02-15T19:13:44.001Z,19.60
2018-02-15T19:16:10.950Z,19.20
2018-02-15T19:18:37.908Z,18.73
2018-02-15T19:21:04.880Z,20.10
2018-02-15T19:23:31.741Z,17.27
2018-02-15T19:25:58.683Z,20.10
2018-02-15T19:28:25.632Z,19.07
2018-02-15T19:30:52.489Z,19.07
2018-02-15T19:33:19.387Z,18.33
2018-02-15T19:35:46.258Z,18.50
2018-02-15T19:38:13.129Z,19.83
2018-02-15T19:40:40.427Z,18.10
2018-02-15T19:43:07.303Z,18.67
2018-02-15T19:45:34.240Z,17.33
2018-02-15T19:48:01.113Z,17.00
2018-02-15T19:50:27.960Z,18.90
2018-02-15T19:52:54.914Z,16.93
2018-02-15T19:55:21.790Z,22.53
2018-02-15T19:57:48.657Z,20.20
2018-02-15T20:00:15.532Z,21.77
2018-02-15T20:02:42.384Z,21.67
2018-02-15T20:05:09.249Z,19.40
2018-02-15T20:07:36.157Z,18.23
2018-02-15T20:10:03.015Z,18.03
2018-02-15T20:12:29.869Z,17.63
2018-02-15T20:14:56.834Z,18.37
2018-02-15T20:17:24.399Z,17.57
2018-02-15T20:19:51.277Z,17.10
2018-02-15T20:22:18.228Z,19.13
2018-02-15T20:24:45.189Z,18.03
2018-02-15T20:27:12.057Z,18.70
2018-02-15T20:29:38.960Z,17.30
2018-02-15T20:32:06.235Z,15.87
2018-02-15T20:34:33.122Z,17.50
2018-02-15T20:36:59.999Z,18.17
2018-02-15T20:39:26.887Z,21.83
2018-02-15T20:41:53.796Z,18.90
2018-02-15T20:44:20.665Z,18.80
2018-02-15T20:46:47.550Z,17.73
2018-02-15T20:49:14.497Z,17.27
2018-02-15T20:51:41.375Z,18.53
2018-02-15T20:54:08.770Z,18.47
2018-02-15T20:56:35.657Z,17.93
2018-02-15T20:59:02.611Z,17.13
2018-02-15T21:01:29.496Z,21.00
2018-02-15T21:03:56.362Z,19.47
2018-02-15T21:06:23.308Z,19.00
2018-02-15T21:08:50.231Z,16.93
2018-02-15T21:11:17.201Z,18.77
2018-02-15T21:13:44.082Z,17.63
2018-02-15T21:16:11.069Z,18.80
2018-02-15T21:18:38.008Z,18.17
2018-02-15T21:21:04.987Z,19.13
2018-02-15T21:23:32.385Z,19.93
2018-02-15T21:25:59.672Z,19.70
2018-02-15T21:28:26.554Z,21.03
2018-02-15T21:30:53.419Z,20.93
2018-02-15T21:33:20.271Z,19.17
2018-02-15T21:35:47.201Z,19.70
2018-02-15T21:38:14.205Z,20.13
2018-02-15T21:40:41.541Z,21.20
2018-02-15T21:43:08.427Z,22.23
2018-02-15T21:45:35.312Z,21.00
2018-02-15T21:48:02.548Z,23.00
2018-02-15T21:50:30.260Z,22.40
2018-02-15T21:52:57.146Z,22.10
2018-02-15T21:55:24.017Z,21.43
2018-02-15T21:57:50.955Z,21.37
2018-02-15T22:00:17.846Z,21.97
2018-02-15T22:02:44.780Z,21.47
2018-02-15T22:05:11.872Z,26.77
2018-02-15T22:07:38.736Z,26.80
2018-02-15T22:10:05.612Z,23.33
2018-02-15T22:12:33.838Z,23.20
2018-02-15T22:15:00.712Z,22.93
2018-02-15T22:17:27.584Z,29.50
2018-02-15T22:19:54.470Z,26.70
2018-02-15T22:22:21.711Z,22.63
2018-02-15T22:24:48.619Z,22.40
2018-02-15T22:27:15.463Z,23.20
2018-02-15T22:29:42.380Z,23.73
2018-02-15T22:32:09.330Z,21.10
2018-02-15T22:34:36.229Z,21.40
2018-02-15T22:37:03.495Z,24.40
2018-02-15T22:39:30.823Z,19.03
2018-02-15T22:41:57.662Z,19.87
2018-02-15T22:44:24.555Z,22.23
2018-02-15T22:46:51.482Z,19.00
2018-02-15T22:49:18.357Z,22.40
2018-02-15T22:51:45.226Z,21.00
2018-02-15T22:54:12.109Z,23.37
2018-02-15T22:56:39.490Z,22.37
2018-02-15T22:59:06.309Z,21.93
2018-02-15T23:01:33.194Z,19.57
2018-02-15T23:04:00.445Z,20.67
2018-02-15T23:06:27.774Z,21.37
2018-02-15T23:08:54.628Z,24.23
2018-02-15T23:11:21.581Z,21.57
2018-02-15T23:13:48.534Z,21.47
2018-02-15T23:16:15.601Z,24.83
2018-02-15T23:18:42.553Z,22.43
2018-02-15T23:21:09.421Z,24.10
2018-02-15T23:23:36.317Z,25.97
2018-02-15T23:26:03.157Z,22.80
2018-02-15T23:28:30.104Z,32.00
2018-02-15T23:30:56.957Z,23.43
2018-02-15T23:33:23.801Z,24.30
2018-02-15T23:35:50.683Z,29.00
2018-02-15T23:38:17.616Z,28.40
2018-02-15T23:40:44.482Z,26.10
2018-02-15T23:43:11.532Z,32.77
2018-02-15T23:45:38.414Z,26.23
2018-02-15T23:48:05.369Z,25.07
2018-02-15T23:50:32.235Z,25.73
2018-02-15T23:52:59.169Z,24.07
2018-02-15T23:55:26.125Z,23.33
2018-02-15T23:57:53.005Z,30.60
